NCAR-RAP Real-Time Weather Data

Output produced by METARs form (26 May 2022  08:22 UTC)
found at http://weather.rap.ucar.edu/surface/
 
KGRR 260753Z AUTO 19011KT 10SM FEW042 BKN050 20/18 A2982 RMK AO2 SLP094 T02000183
KGRR 260653Z AUTO 18010KT 10SM OVC100 20/18 A2983 RMK AO2 RAE11 SLP097 P0000 T02000183
KGRR 260553Z AUTO 17008KT 9SM -RA FEW018 BKN055 OVC075 19/18 A2984 RMK AO2 RAB10E21B43 SLP103 P0000 60003 T01940178 10206 20194 56011
KGRR 260453Z AUTO 15008KT 10SM SCT033 BKN041 OVC080 19/18 A2985 RMK AO2 SLP107 T01940178 402060106
KGRR 260353Z 15010KT 10SM SCT050 BKN080 OVC110 19/18 A2986 RMK AO2 RAE41 SLP109 LAST P0002 T01940183
KGRR 260253Z 13012KT 7SM -RA SCT016 BKN060 BKN080 OVC130 19/18 A2988 RMK AO2 RAB12 SLP115 P0001 60001 T01940178 55009
KGRR 260153Z 10010KT 10SM SCT060 BKN080 BKN100 OVC140 19/18 A2986 RMK AO2 RAB01E15 SLP110 P0000 T01940178
KGRR 260053Z 11010KT 7SM FEW060 SCT100 BKN140 OVC180 19/17 A2988 RMK AO2 SLP116 T01940172
KGRR 252353Z 11010KT 7SM SCT013 BKN060 BKN100 OVC180 19/17 A2990 RMK AO2 SLP125 LTG DSNT W-NW 60002 T01940172 10200 20167 56015
KGRR 252340Z 11010KT 7SM SCT013 BKN065 BKN100 OVC180 19/17 A2990 RMK AO2 T01940172
KGRR 252326Z 10010KT 8SM BKN013 BKN065 OVC090 19/17 A2991 RMK AO2 LTG DSNT W T01940172
KGRR 252315Z 11007KT 8SM SCT015 BKN060 OVC085 19/17 A2991 RMK AO2 T01940172
KGRR 252300Z 11009KT 9SM BKN015 OVC085 19/17 A2991 RMK AO2 T01940172
KGRR 252253Z 12010KT 10SM OVC013 19/17 A2991 RMK AO2 SLP127 T01940172
KGRR 252153Z 12011KT 10SM OVC013 20/17 A2992 RMK AO2 SLP131 T02000172
KGRR 252053Z 13010G16KT 10SM OVC012 19/17 A2995 RMK AO2 SLP141 60002 T01940172 56026
KGRR 252039Z 12010KT 10SM OVC011 19/17 A2995 RMK AO2 T01940167
KGRR 251953Z 12013KT 10SM BKN009 OVC013 19/17 A2997 RMK AO2 SLP149 T01890167